Jack Guidry — WDF2422 — position and weather

sailwx.info

Track history (hours):
 
Tides and Currents Weather Stations Pressure Air Temp Water Temp Dewpoint Dewpoint Depression Visibility Wind Speed Wind Dir Waves Ship Positions

Jack Guidry

Owner: Enterprise Marine Services, LLC, San Antonio, TX. More information available from US FCC via Universal Licensing System and Coast Guard Vessel Documentation Center.

Last reported at 2016-Jul-30 12:33 UTC. Time now 2016-Jul-30 13:06 UTC.
Position N 30°05' W 093°20'.

Length 22 m; draft 3 m.

Type: Other ship. MMSI: 367003430.

Date/timePositionNaut miles runAvg speedWind from/ knotsBaromVisibWave heightAir tempDewpointWater temp
2016-Jul-30 12:33N 30°05' W 093°20'0 0.0
2016-Jul-30 11:33N 30°05' W 093°20'0 0.0
2016-Jul-30 10:33N 30°05' W 093°20'0 0.0
2016-Jul-30 09:33N 30°05' W 093°20'0 0.0
2016-Jul-30 08:33N 30°05' W 093°20'0 0.0
2016-Jul-30 07:33N 30°05' W 093°20'0 0.0
2016-Jul-30 06:33N 30°05' W 093°20'1 0.6
2016-Jul-30 05:33N 30°05' W 093°20'3 2.8
2016-Jul-30 04:33N 30°08' W 093°19'0 0.0
2016-Jul-30 03:33N 30°08' W 093°19'0 0.0
2016-Jul-30 02:33N 30°08' W 093°19'0 0.0
2016-Jul-30 01:33N 30°08' W 093°19'0 0.0
2016-Jul-30 00:33N 30°08' W 093°19'0 0.0
2016-Jul-29 23:33N 30°08' W 093°19'0 0.0
2016-Jul-29 22:33N 30°08' W 093°19'0 0.0
2016-Jul-29 21:33N 30°08' W 093°19'0 0.0
2016-Jul-29 20:33N 30°08' W 093°19'0 0.0
2016-Jul-29 19:33N 30°08' W 093°19'0 0.0
2016-Jul-29 18:33N 30°08' W 093°19'0 0.0
2016-Jul-29 17:33N 30°08' W 093°19'0 0.0
2016-Jul-29 16:33N 30°08' W 093°19'0 0.0
2016-Jul-29 15:33N 30°08' W 093°19'0 0.0
2016-Jul-29 14:33N 30°08' W 093°19'0 0.0
2016-Jul-29 13:34N 30°08' W 093°19'0 0.0
2016-Jul-29 12:33N 30°08' W 093°19'0 0.0
2016-Jul-29 11:33N 30°08' W 093°19'0 0.0
2016-Jul-29 10:33N 30°08' W 093°19'1 1.0
2016-Jul-29 09:33N 30°07' W 093°20'4 4.0
2016-Jul-29 08:33N 30°04' W 093°22'1 1.1
2016-Jul-29 07:33N 30°04' W 093°23'2 2.0
2016-Jul-29 06:33N 30°04' W 093°25'  
2016-Jul-26 08:19N 29°53' W 093°55'5 6.8
2016-Jul-26 07:33N 29°57' W 093°52'5 5.3
2016-Jul-26 06:33N 29°60' W 093°47'5 5.2
2016-Jul-26 05:31N 30°03' W 093°42'3 3.3
2016-Jul-26 04:33N 30°04' W 093°38'4 4.0
2016-Jul-26 03:33N 30°04' W 093°34'4 4.1
2016-Jul-26 02:33N 30°04' W 093°29'4 4.0
2016-Jul-26 01:33N 30°04' W 093°25'3 2.9
2016-Jul-26 00:33N 30°04' W 093°21'2 2.4
2016-Jul-25 23:33N 30°06' W 093°20'0 0.2
2016-Jul-25 22:33N 30°06' W 093°20'1 1.0
2016-Jul-25 21:33N 30°05' W 093°20'0 0.0
2016-Jul-25 20:33N 30°05' W 093°20'0 0.0
2016-Jul-25 19:33N 30°05' W 093°20'0 0.0
2016-Jul-25 18:33N 30°05' W 093°20'0 0.0
2016-Jul-25 17:33N 30°05' W 093°20'0 0.0
2016-Jul-25 16:33N 30°05' W 093°20'0 0.0
2016-Jul-25 15:33N 30°05' W 093°20'0 0.0
2016-Jul-25 14:33N 30°05' W 093°20'1 1.2
2016-Jul-25 13:33N 30°06' W 093°20'2 2.2
2016-Jul-25 12:33N 30°08' W 093°19'0 0.0
2016-Jul-25 11:33N 30°08' W 093°19'0 0.0
2016-Jul-25 10:33N 30°08' W 093°19'0 0.0
2016-Jul-25 09:33N 30°08' W 093°19'0 0.0
2016-Jul-25 08:33N 30°08' W 093°19'0 0.0
2016-Jul-25 07:33N 30°08' W 093°19'0 0.0
2016-Jul-25 06:33N 30°08' W 093°19'0 0.0
2016-Jul-25 05:33N 30°08' W 093°19'0 0.0
2016-Jul-25 04:33N 30°08' W 093°19'0 0.0
2016-Jul-25 03:33N 30°08' W 093°19'0 0.0
2016-Jul-25 02:33N 30°08' W 093°19'0 0.0
2016-Jul-25 01:33N 30°08' W 093°19'0 0.0
2016-Jul-25 00:33N 30°08' W 093°19'0 0.0
2016-Jul-24 23:33N 30°08' W 093°19'0 0.0
2016-Jul-24 22:33N 30°08' W 093°19'0 0.0
2016-Jul-24 21:33N 30°08' W 093°19'0 0.0
2016-Jul-24 20:33N 30°08' W 093°19'0 0.0
2016-Jul-24 19:33N 30°08' W 093°19'0 0.0
2016-Jul-24 18:33N 30°08' W 093°19'0 0.0
2016-Jul-24 17:33N 30°08' W 093°19'2 1.6
2016-Jul-24 16:33N 30°07' W 093°20'2 2.2
2016-Jul-24 15:33N 30°05' W 093°20'0 0.0
2016-Jul-24 14:33N 30°05' W 093°20'0 0.0
2016-Jul-24 13:33N 30°05' W 093°20'0 0.0
2016-Jul-24 12:33N 30°05' W 093°20'0 0.0
2016-Jul-24 11:33N 30°05' W 093°20'0 0.0
2016-Jul-24 10:33N 30°05' W 093°20'0 0.0
2016-Jul-24 09:33N 30°05' W 093°20'0 0.0
2016-Jul-24 08:33N 30°05' W 093°20'0 0.0
2016-Jul-24 07:33N 30°05' W 093°20'0 0.0
2016-Jul-24 06:33N 30°05' W 093°20'0 0.0
2016-Jul-24 05:33N 30°05' W 093°20'0 0.0
2016-Jul-24 04:33N 30°05' W 093°20'0 0.0
2016-Jul-24 03:33N 30°05' W 093°20'0 0.0
2016-Jul-24 02:33N 30°05' W 093°20'0 0.0
2016-Jul-24 01:33N 30°05' W 093°20'0 0.0
2016-Jul-24 00:32N 30°05' W 093°20'0 0.0
2016-Jul-23 23:33N 30°05' W 093°20'0 0.0
2016-Jul-23 22:33N 30°05' W 093°20'0 0.0
2016-Jul-23 21:33N 30°05' W 093°20'0 0.0
2016-Jul-23 20:33N 30°05' W 093°20'0 0.0
2016-Jul-23 19:33N 30°05' W 093°20'0 0.0
2016-Jul-23 18:33N 30°05' W 093°20'0 0.0
2016-Jul-23 17:33N 30°05' W 093°20'0 0.0
2016-Jul-23 16:33N 30°05' W 093°20'0 0.0
2016-Jul-23 15:33N 30°05' W 093°20'0 0.0
2016-Jul-23 14:33N 30°05' W 093°20'2 1.9
2016-Jul-23 13:33N 30°06' W 093°19'1 0.6
2016-Jul-23 12:33N 30°06' W 093°18'3 2.5
2016-Jul-23 11:33N 30°05' W 093°20'0 0.0
2016-Jul-23 10:33N 30°05' W 093°20'0 0.0
2016-Jul-23 09:33N 30°05' W 093°20'4 4.1
2016-Jul-23 08:29N 30°09' W 093°20'2 2.5
2016-Jul-23 07:33N 30°11' W 093°19'0 0.1
2016-Jul-23 06:29N 30°11' W 093°19'0 0.0
2016-Jul-23 04:33N 30°11' W 093°19'0 0.0
2016-Jul-23 03:33N 30°11' W 093°19'0 0.0
2016-Jul-23 02:33N 30°11' W 093°19'0 0.0
2016-Jul-23 01:33N 30°11' W 093°19'0 0.0
2016-Jul-23 00:33N 30°11' W 093°19'0 0.0
2016-Jul-22 23:33N 30°11' W 093°19'0 0.0
2016-Jul-22 22:33N 30°11' W 093°19'0 0.0
2016-Jul-22 21:33N 30°11' W 093°19'0 0.0
2016-Jul-22 20:33N 30°11' W 093°19'0 0.0
2016-Jul-22 19:33N 30°11' W 093°19'0 0.0
2016-Jul-22 18:34N 30°11' W 093°19'0 0.0
2016-Jul-22 17:33N 30°11' W 093°19'0 0.0
2016-Jul-22 16:33N 30°11' W 093°19'0 0.0
2016-Jul-22 15:33N 30°11' W 093°19'0 0.0
2016-Jul-22 14:34N 30°11' W 093°19'0 0.0
2016-Jul-22 13:33N 30°11' W 093°19'0 0.0
2016-Jul-22 12:34N 30°11' W 093°19'0 0.0
2016-Jul-22 11:34N 30°11' W 093°19'0 0.0
2016-Jul-22 10:34N 30°11' W 093°19'0 0.0
2016-Jul-22 09:33N 30°11' W 093°19'0 0.0
2016-Jul-22 08:34N 30°11' W 093°19'0 0.0
2016-Jul-22 07:33N 30°11' W 093°19'0 0.0
2016-Jul-22 05:34N 30°11' W 093°19'0 0.0
2016-Jul-22 04:34N 30°11' W 093°19'0 0.0
2016-Jul-22 03:34N 30°11' W 093°19'0 0.0
2016-Jul-22 02:33N 30°11' W 093°19'0 0.0
2016-Jul-22 01:34N 30°11' W 093°19'0 0.0
2016-Jul-22 00:34N 30°11' W 093°19'0 0.0
2016-Jul-21 23:33N 30°11' W 093°19'0 0.0
2016-Jul-21 22:34N 30°11' W 093°19'0 0.0
2016-Jul-21 21:33N 30°11' W 093°19'0 0.0
2016-Jul-21 20:34N 30°11' W 093°19'0 0.0
2016-Jul-21 19:33N 30°11' W 093°19'0 0.0
2016-Jul-21 18:34N 30°11' W 093°19'0 0.0
2016-Jul-21 17:33N 30°11' W 093°19'0 0.0
2016-Jul-21 16:34N 30°11' W 093°19'0 0.0
2016-Jul-21 15:34N 30°11' W 093°19'0 0.0
2016-Jul-21 14:33N 30°11' W 093°19'0 0.0
2016-Jul-21 13:33N 30°11' W 093°19'0 0.1
2016-Jul-21 12:34N 30°11' W 093°19'0 0.0
2016-Jul-21 11:34N 30°11' W 093°19'0 0.0
2016-Jul-21 10:34N 30°11' W 093°19'0 0.0
2016-Jul-21 09:34N 30°11' W 093°19'0 0.0
2016-Jul-21 08:34N 30°11' W 093°19'0 0.1
2016-Jul-21 07:33N 30°11' W 093°19'3 2.9
2016-Jul-21 06:34N 30°08' W 093°19'0 0.3
2016-Jul-21 05:34N 30°08' W 093°19'0 0.0
2016-Jul-21 04:33N 30°08' W 093°19'0 0.0
2016-Jul-21 03:34N 30°08' W 093°19'0 0.0
2016-Jul-21 02:34N 30°08' W 093°19'0 0.0
2016-Jul-21 01:34N 30°08' W 093°19'0 0.0
2016-Jul-21 00:33N 30°08' W 093°19'0 0.0
2016-Jul-20 23:34N 30°08' W 093°19'0 0.0
2016-Jul-20 22:34N 30°08' W 093°19'0 0.0
2016-Jul-20 21:34N 30°08' W 093°19'0 0.0
2016-Jul-20 20:34N 30°08' W 093°19'0 0.0
2016-Jul-20 19:34N 30°08' W 093°19'0 0.0
2016-Jul-20 18:33N 30°08' W 093°19'0 0.0
2016-Jul-20 17:34N 30°08' W 093°19'0 0.0
2016-Jul-20 16:34N 30°08' W 093°19'0 0.0
2016-Jul-20 15:34N 30°08' W 093°19'0 0.0
2016-Jul-20 14:34N 30°08' W 093°19'0 0.0
2016-Jul-20 13:34N 30°08' W 093°19'3 2.6
2016-Jul-20 12:34N 30°06' W 093°20'  
Track history (hours):
 
Tides and Currents Weather Stations Pressure Air Temp Water Temp Dewpoint Dewpoint Depression Visibility Wind Speed Wind Dir Waves Ship Positions

Jack Guidry

Owner: Enterprise Marine Services, LLC, San Antonio, TX. More information available from US FCC via Universal Licensing System and Coast Guard Vessel Documentation Center.

Last reported at 2016-Jul-30 12:33 UTC. Time now 2016-Jul-30 13:06 UTC.
Position N 30°05' W 093°20'.

Length 22 m; draft 3 m.

Type: Other ship. MMSI: 367003430.

Date/timePositionNaut miles runAvg speedWind from/ knotsBaromVisibWave heightAir tempDewpointWater temp
2016-Jul-30 12:33N 30°05' W 093°20'0 0.0
2016-Jul-30 11:33N 30°05' W 093°20'0 0.0
2016-Jul-30 10:33N 30°05' W 093°20'0 0.0
2016-Jul-30 09:33N 30°05' W 093°20'0 0.0
2016-Jul-30 08:33N 30°05' W 093°20'0 0.0
2016-Jul-30 07:33N 30°05' W 093°20'0 0.0
2016-Jul-30 06:33N 30°05' W 093°20'1 0.6
2016-Jul-30 05:33N 30°05' W 093°20'3 2.8
2016-Jul-30 04:33N 30°08' W 093°19'0 0.0
2016-Jul-30 03:33N 30°08' W 093°19'0 0.0
2016-Jul-30 02:33N 30°08' W 093°19'0 0.0
2016-Jul-30 01:33N 30°08' W 093°19'0 0.0
2016-Jul-30 00:33N 30°08' W 093°19'0 0.0
2016-Jul-29 23:33N 30°08' W 093°19'0 0.0
2016-Jul-29 22:33N 30°08' W 093°19'0 0.0
2016-Jul-29 21:33N 30°08' W 093°19'0 0.0
2016-Jul-29 20:33N 30°08' W 093°19'0 0.0
2016-Jul-29 19:33N 30°08' W 093°19'0 0.0
2016-Jul-29 18:33N 30°08' W 093°19'0 0.0
2016-Jul-29 17:33N 30°08' W 093°19'0 0.0
2016-Jul-29 16:33N 30°08' W 093°19'0 0.0
2016-Jul-29 15:33N 30°08' W 093°19'0 0.0
2016-Jul-29 14:33N 30°08' W 093°19'0 0.0
2016-Jul-29 13:34N 30°08' W 093°19'0 0.0
2016-Jul-29 12:33N 30°08' W 093°19'0 0.0
2016-Jul-29 11:33N 30°08' W 093°19'0 0.0
2016-Jul-29 10:33N 30°08' W 093°19'1 1.0
2016-Jul-29 09:33N 30°07' W 093°20'4 4.0
2016-Jul-29 08:33N 30°04' W 093°22'1 1.1
2016-Jul-29 07:33N 30°04' W 093°23'2 2.0
2016-Jul-29 06:33N 30°04' W 093°25'  
2016-Jul-26 08:19N 29°53' W 093°55'5 6.8
2016-Jul-26 07:33N 29°57' W 093°52'5 5.3
2016-Jul-26 06:33N 29°60' W 093°47'5 5.2
2016-Jul-26 05:31N 30°03' W 093°42'3 3.3
2016-Jul-26 04:33N 30°04' W 093°38'4 4.0
2016-Jul-26 03:33N 30°04' W 093°34'4 4.1
2016-Jul-26 02:33N 30°04' W 093°29'4 4.0
2016-Jul-26 01:33N 30°04' W 093°25'3 2.9
2016-Jul-26 00:33N 30°04' W 093°21'2 2.4
2016-Jul-25 23:33N 30°06' W 093°20'0 0.2
2016-Jul-25 22:33N 30°06' W 093°20'1 1.0
2016-Jul-25 21:33N 30°05' W 093°20'0 0.0
2016-Jul-25 20:33N 30°05' W 093°20'0 0.0
2016-Jul-25 19:33N 30°05' W 093°20'0 0.0
2016-Jul-25 18:33N 30°05' W 093°20'0 0.0
2016-Jul-25 17:33N 30°05' W 093°20'0 0.0
2016-Jul-25 16:33N 30°05' W 093°20'0 0.0
2016-Jul-25 15:33N 30°05' W 093°20'0 0.0
2016-Jul-25 14:33N 30°05' W 093°20'1 1.2
2016-Jul-25 13:33N 30°06' W 093°20'2 2.2
2016-Jul-25 12:33N 30°08' W 093°19'0 0.0
2016-Jul-25 11:33N 30°08' W 093°19'0 0.0
2016-Jul-25 10:33N 30°08' W 093°19'0 0.0
2016-Jul-25 09:33N 30°08' W 093°19'0 0.0
2016-Jul-25 08:33N 30°08' W 093°19'0 0.0
2016-Jul-25 07:33N 30°08' W 093°19'0 0.0
2016-Jul-25 06:33N 30°08' W 093°19'0 0.0
2016-Jul-25 05:33N 30°08' W 093°19'0 0.0
2016-Jul-25 04:33N 30°08' W 093°19'0 0.0
2016-Jul-25 03:33N 30°08' W 093°19'0 0.0
2016-Jul-25 02:33N 30°08' W 093°19'0 0.0
2016-Jul-25 01:33N 30°08' W 093°19'0 0.0
2016-Jul-25 00:33N 30°08' W 093°19'0 0.0
2016-Jul-24 23:33N 30°08' W 093°19'0 0.0
2016-Jul-24 22:33N 30°08' W 093°19'0 0.0
2016-Jul-24 21:33N 30°08' W 093°19'0 0.0
2016-Jul-24 20:33N 30°08' W 093°19'0 0.0
2016-Jul-24 19:33N 30°08' W 093°19'0 0.0
2016-Jul-24 18:33N 30°08' W 093°19'0 0.0
2016-Jul-24 17:33N 30°08' W 093°19'2 1.6
2016-Jul-24 16:33N 30°07' W 093°20'2 2.2
2016-Jul-24 15:33N 30°05' W 093°20'0 0.0
2016-Jul-24 14:33N 30°05' W 093°20'0 0.0
2016-Jul-24 13:33N 30°05' W 093°20'0 0.0
2016-Jul-24 12:33N 30°05' W 093°20'0 0.0
2016-Jul-24 11:33N 30°05' W 093°20'0 0.0
2016-Jul-24 10:33N 30°05' W 093°20'0 0.0
2016-Jul-24 09:33N 30°05' W 093°20'0 0.0
2016-Jul-24 08:33N 30°05' W 093°20'0 0.0
2016-Jul-24 07:33N 30°05' W 093°20'0 0.0
2016-Jul-24 06:33N 30°05' W 093°20'0 0.0
2016-Jul-24 05:33N 30°05' W 093°20'0 0.0
2016-Jul-24 04:33N 30°05' W 093°20'0 0.0
2016-Jul-24 03:33N 30°05' W 093°20'0 0.0
2016-Jul-24 02:33N 30°05' W 093°20'0 0.0
2016-Jul-24 01:33N 30°05' W 093°20'0 0.0
2016-Jul-24 00:32N 30°05' W 093°20'0 0.0
2016-Jul-23 23:33N 30°05' W 093°20'0 0.0
2016-Jul-23 22:33N 30°05' W 093°20'0 0.0
2016-Jul-23 21:33N 30°05' W 093°20'0 0.0
2016-Jul-23 20:33N 30°05' W 093°20'0 0.0
2016-Jul-23 19:33N 30°05' W 093°20'0 0.0
2016-Jul-23 18:33N 30°05' W 093°20'0 0.0
2016-Jul-23 17:33N 30°05' W 093°20'0 0.0
2016-Jul-23 16:33N 30°05' W 093°20'0 0.0
2016-Jul-23 15:33N 30°05' W 093°20'0 0.0
2016-Jul-23 14:33N 30°05' W 093°20'2 1.9
2016-Jul-23 13:33N 30°06' W 093°19'1 0.6
2016-Jul-23 12:33N 30°06' W 093°18'3 2.5
2016-Jul-23 11:33N 30°05' W 093°20'0 0.0
2016-Jul-23 10:33N 30°05' W 093°20'0 0.0
2016-Jul-23 09:33N 30°05' W 093°20'4 4.1
2016-Jul-23 08:29N 30°09' W 093°20'2 2.5
2016-Jul-23 07:33N 30°11' W 093°19'0 0.1
2016-Jul-23 06:29N 30°11' W 093°19'0 0.0
2016-Jul-23 04:33N 30°11' W 093°19'0 0.0
2016-Jul-23 03:33N 30°11' W 093°19'0 0.0
2016-Jul-23 02:33N 30°11' W 093°19'0 0.0
2016-Jul-23 01:33N 30°11' W 093°19'0 0.0
2016-Jul-23 00:33N 30°11' W 093°19'0 0.0
2016-Jul-22 23:33N 30°11' W 093°19'0 0.0
2016-Jul-22 22:33N 30°11' W 093°19'0 0.0
2016-Jul-22 21:33N 30°11' W 093°19'0 0.0
2016-Jul-22 20:33N 30°11' W 093°19'0 0.0
2016-Jul-22 19:33N 30°11' W 093°19'0 0.0
2016-Jul-22 18:34N 30°11' W 093°19'0 0.0
2016-Jul-22 17:33N 30°11' W 093°19'0 0.0
2016-Jul-22 16:33N 30°11' W 093°19'0 0.0
2016-Jul-22 15:33N 30°11' W 093°19'0 0.0
2016-Jul-22 14:34N 30°11' W 093°19'0 0.0
2016-Jul-22 13:33N 30°11' W 093°19'0 0.0
2016-Jul-22 12:34N 30°11' W 093°19'0 0.0
2016-Jul-22 11:34N 30°11' W 093°19'0 0.0
2016-Jul-22 10:34N 30°11' W 093°19'0 0.0
2016-Jul-22 09:33N 30°11' W 093°19'0 0.0
2016-Jul-22 08:34N 30°11' W 093°19'0 0.0
2016-Jul-22 07:33N 30°11' W 093°19'0 0.0
2016-Jul-22 05:34N 30°11' W 093°19'0 0.0
2016-Jul-22 04:34N 30°11' W 093°19'0 0.0
2016-Jul-22 03:34N 30°11' W 093°19'0 0.0
2016-Jul-22 02:33N 30°11' W 093°19'0 0.0
2016-Jul-22 01:34N 30°11' W 093°19'0 0.0
2016-Jul-22 00:34N 30°11' W 093°19'0 0.0
2016-Jul-21 23:33N 30°11' W 093°19'0 0.0
2016-Jul-21 22:34N 30°11' W 093°19'0 0.0
2016-Jul-21 21:33N 30°11' W 093°19'0 0.0
2016-Jul-21 20:34N 30°11' W 093°19'0 0.0
2016-Jul-21 19:33N 30°11' W 093°19'0 0.0
2016-Jul-21 18:34N 30°11' W 093°19'0 0.0
2016-Jul-21 17:33N 30°11' W 093°19'0 0.0
2016-Jul-21 16:34N 30°11' W 093°19'0 0.0
2016-Jul-21 15:34N 30°11' W 093°19'0 0.0
2016-Jul-21 14:33N 30°11' W 093°19'0 0.0
2016-Jul-21 13:33N 30°11' W 093°19'0 0.1
2016-Jul-21 12:34N 30°11' W 093°19'0 0.0
2016-Jul-21 11:34N 30°11' W 093°19'0 0.0
2016-Jul-21 10:34N 30°11' W 093°19'0 0.0
2016-Jul-21 09:34N 30°11' W 093°19'0 0.0
2016-Jul-21 08:34N 30°11' W 093°19'0 0.1
2016-Jul-21 07:33N 30°11' W 093°19'3 2.9
2016-Jul-21 06:34N 30°08' W 093°19'0 0.3
2016-Jul-21 05:34N 30°08' W 093°19'0 0.0
2016-Jul-21 04:33N 30°08' W 093°19'0 0.0
2016-Jul-21 03:34N 30°08' W 093°19'0 0.0
2016-Jul-21 02:34N 30°08' W 093°19'0 0.0
2016-Jul-21 01:34N 30°08' W 093°19'0 0.0
2016-Jul-21 00:33N 30°08' W 093°19'0 0.0
2016-Jul-20 23:34N 30°08' W 093°19'0 0.0
2016-Jul-20 22:34N 30°08' W 093°19'0 0.0
2016-Jul-20 21:34N 30°08' W 093°19'0 0.0
2016-Jul-20 20:34N 30°08' W 093°19'0 0.0
2016-Jul-20 19:34N 30°08' W 093°19'0 0.0
2016-Jul-20 18:33N 30°08' W 093°19'0 0.0
2016-Jul-20 17:34N 30°08' W 093°19'0 0.0
2016-Jul-20 16:34N 30°08' W 093°19'0 0.0
2016-Jul-20 15:34N 30°08' W 093°19'0 0.0
2016-Jul-20 14:34N 30°08' W 093°19'0 0.0
2016-Jul-20 13:34N 30°08' W 093°19'3 2.6
2016-Jul-20 12:34N 30°06' W 093°20'  

Dump ship's entire track history